Time,TemperatureF,DewpointF,PressureIn,WindDirection,WindDirectionDegrees,WindSpeedMPH,WindSpeedGustMPH,Humidity,HourlyPrecipIn,Conditions,Clouds,dailyrainin,SoftwareType,DateUTC
2013-01-26 00:01:00,57.2,54.6,29.65,ESE,113,0.0,1.1,91,0.00,,,0.00,WUHU216HW,2013-01-26 08:01:00,
2013-01-26 00:06:00,57.2,54.6,29.65,ENE,68,0.0,1.1,91,0.00,,,0.00,WUHU216HW,2013-01-26 08:06:00,
2013-01-26 00:11:00,57.2,54.6,29.65,East,90,0.0,1.8,91,0.00,,,0.00,WUHU216HW,2013-01-26 08:11:00,
2013-01-26 00:16:00,57.2,54.6,29.65,WSW,248,0.0,1.8,91,0.00,,,0.00,WUHU216HW,2013-01-26 08:16:00,
2013-01-26 00:21:00,57.2,54.6,29.65,WSW,248,0.0,0.0,91,0.00,,,0.00,WUHU216HW,2013-01-26 08:21:00,
2013-01-26 00:26:00,57.2,54.6,29.65,WSW,248,0.0,0.0,91,0.00,,,0.00,WUHU216HW,2013-01-26 08:26:00,
2013-01-26 00:31:00,57.2,54.6,29.64,WSW,248,0.0,0.0,91,0.00,,,0.00,WUHU216HW,2013-01-26 08:31:00,
2013-01-26 00:36:00,57.4,54.8,29.64,WSW,248,0.0,0.0,91,0.00,,,0.00,WUHU216HW,2013-01-26 08:36:00,
2013-01-26 00:41:00,57.4,54.8,29.64,NW,315,0.0,0.9,91,0.00,,,0.00,WUHU216HW,2013-01-26 08:41:00,
2013-01-26 00:46:00,57.4,54.8,29.65,WSW,248,0.0,0.9,91,0.00,,,0.00,WUHU216HW,2013-01-26 08:46:00,
2013-01-26 00:51:00,57.2,54.6,29.64,SW,225,0.0,0.7,91,0.00,,,0.00,WUHU216HW,2013-01-26 08:51:00,
2013-01-26 00:56:00,57.2,54.6,29.64,SW,225,0.0,0.0,91,0.00,,,0.00,WUHU216HW,2013-01-26 08:56:00,
2013-01-26 01:01:00,57.2,54.9,29.64,WSW,248,0.0,0.0,92,0.00,,,0.00,WUHU216HW,2013-01-26 09:01:00,
2013-01-26 01:06:00,57.2,54.6,29.64,WSW,248,0.0,0.0,91,0.01,,,0.01,WUHU216HW,2013-01-26 09:06:00,
2013-01-26 01:11:00,57.2,54.6,29.64,WSW,248,0.0,0.0,91,0.01,,,0.01,WUHU216HW,2013-01-26 09:11:00,
2013-01-26 01:16:00,57.2,54.6,29.64,West,270,0.0,0.0,91,0.01,,,0.01,WUHU216HW,2013-01-26 09:16:00,
2013-01-26 01:21:00,57.2,54.9,29.64,NNE,23,0.7,1.1,92,0.01,,,0.01,WUHU216HW,2013-01-26 09:21:00,
2013-01-26 01:26:00,57.2,54.9,29.64,North,0,0.9,1.1,92,0.01,,,0.01,WUHU216HW,2013-01-26 09:26:00,
2013-01-26 01:31:00,57.2,54.9,29.64,NNE,23,0.4,1.1,92,0.01,,,0.01,WUHU216HW,2013-01-26 09:31:00,
2013-01-26 01:36:00,57.1,54.7,29.64,ENE,68,1.1,1.1,92,0.01,,,0.01,WUHU216HW,2013-01-26 09:36:00,
2013-01-26 01:41:00,57.1,54.7,29.64,ENE,68,0.4,1.1,92,0.01,,,0.01,WUHU216HW,2013-01-26 09:41:00,
2013-01-26 01:46:00,57.1,54.7,29.64,ENE,68,0.0,1.1,92,0.01,,,0.01,WUHU216HW,2013-01-26 09:46:00,
2013-01-26 01:51:00,57.1,54.7,29.64,ENE,68,0.7,0.7,92,0.01,,,0.01,WUHU216HW,2013-01-26 09:51:00,
2013-01-26 01:56:00,56.9,54.5,29.64,NE,45,0.7,0.9,92,0.01,,,0.01,WUHU216HW,2013-01-26 09:56:00,
2013-01-26 02:01:00,56.9,54.5,29.64,NNE,23,0.0,0.9,92,0.00,,,0.01,WUHU216HW,2013-01-26 10:01:00,
2013-01-26 02:06:00,56.9,54.5,29.63,NNE,23,0.0,0.9,92,0.00,,,0.01,WUHU216HW,2013-01-26 10:06:00,
2013-01-26 02:11:00,56.9,54.5,29.63,East,90,0.7,1.1,92,0.00,,,0.01,WUHU216HW,2013-01-26 10:11:00,
2013-01-26 02:16:00,56.9,54.5,29.63,ENE,68,0.0,1.1,92,0.00,,,0.01,WUHU216HW,2013-01-26 10:16:00,
2013-01-26 02:21:00,56.9,54.5,29.63,East,90,0.0,0.9,92,0.00,,,0.01,WUHU216HW,2013-01-26 10:21:00,
2013-01-26 02:27:00,57.1,54.7,29.63,ENE,68,0.4,0.7,92,0.00,,,0.01,WUHU216HW,2013-01-26 10:27:00,
2013-01-26 02:31:00,56.9,54.5,29.63,ENE,68,0.0,0.7,92,0.00,,,0.01,WUHU216HW,2013-01-26 10:31:00,
2013-01-26 02:36:00,57.1,54.7,29.63,ENE,68,0.0,0.7,92,0.00,,,0.01,WUHU216HW,2013-01-26 10:36:00,
2013-01-26 02:41:00,56.9,54.9,29.63,ENE,68,1.1,1.1,93,0.00,,,0.01,WUHU216HW,2013-01-26 10:41:00,
2013-01-26 02:46:00,56.9,54.9,29.63,ESE,113,1.1,1.1,93,0.00,,,0.01,WUHU216HW,2013-01-26 10:46:00,
2013-01-26 02:51:00,57.1,55.1,29.62,East,90,0.2,1.1,93,0.00,,,0.01,WUHU216HW,2013-01-26 10:51:00,
2013-01-26 02:56:00,56.9,54.9,29.62,ENE,68,0.4,1.1,93,0.00,,,0.01,WUHU216HW,2013-01-26 10:56:00,
2013-01-26 03:01:00,56.9,54.9,29.62,ENE,68,0.0,1.3,93,0.00,,,0.01,WUHU216HW,2013-01-26 11:01:00,
2013-01-26 03:06:00,56.9,54.9,29.62,ENE,68,0.0,1.3,93,0.00,,,0.01,WUHU216HW,2013-01-26 11:06:00,
2013-01-26 03:11:00,56.9,54.9,29.62,NE,45,0.0,0.9,93,0.00,,,0.01,WUHU216HW,2013-01-26 11:11:00,
2013-01-26 03:16:00,56.9,54.9,29.62,NE,45,0.0,0.9,93,0.01,,,0.02,WUHU216HW,2013-01-26 11:16:00,
2013-01-26 03:22:00,56.9,54.9,29.62,NE,45,0.0,0.0,93,0.01,,,0.02,WUHU216HW,2013-01-26 11:22:00,
2013-01-26 03:27:00,56.9,54.5,29.61,NE,45,0.0,0.0,92,0.02,,,0.03,WUHU216HW,2013-01-26 11:27:00,
2013-01-26 03:32:00,56.7,54.4,29.61,NE,45,0.0,0.0,92,0.02,,,0.03,WUHU216HW,2013-01-26 11:32:00,
2013-01-26 03:36:00,56.7,54.4,29.61,NE,45,0.0,0.0,92,0.02,,,0.03,WUHU216HW,2013-01-26 11:36:00,
2013-01-26 03:41:00,56.7,54.4,29.61,NE,45,0.0,0.0,92,0.02,,,0.03,WUHU216HW,2013-01-26 11:41:00,
2013-01-26 03:46:00,56.7,54.4,29.61,NW,315,0.0,0.0,92,0.02,,,0.03,WUHU216HW,2013-01-26 11:46:00,
2013-01-26 03:51:00,56.5,54.2,29.61,NW,315,0.0,0.0,92,0.02,,,0.03,WUHU216HW,2013-01-26 11:51:00,
2013-01-26 03:56:00,56.5,54.2,29.61,NW,315,0.0,0.0,92,0.02,,,0.03,WUHU216HW,2013-01-26 11:56:00,
2013-01-26 04:01:00,56.5,54.2,29.61,NNW,338,0.0,0.0,92,0.02,,,0.03,WUHU216HW,2013-01-26 12:01:00,
2013-01-26 04:06:00,56.5,54.2,29.60,NNW,338,0.0,0.9,92,0.02,,,0.03,WUHU216HW,2013-01-26 12:06:00,
2013-01-26 04:11:00,56.3,54.0,29.60,NNW,338,0.0,0.9,92,0.02,,,0.03,WUHU216HW,2013-01-26 12:11:00,
2013-01-26 04:16:00,56.3,54.0,29.60,NNW,338,0.0,0.0,92,0.01,,,0.03,WUHU216HW,2013-01-26 12:16:00,
2013-01-26 04:21:00,56.3,54.0,29.60,NNW,338,0.0,0.0,92,0.01,,,0.03,WUHU216HW,2013-01-26 12:21:00,
2013-01-26 04:26:00,56.3,54.0,29.60,NNW,338,0.0,0.0,92,0.00,,,0.03,WUHU216HW,2013-01-26 12:26:00,
2013-01-26 04:31:00,56.2,53.8,29.60,NNW,338,0.0,0.0,92,0.00,,,0.03,WUHU216HW,2013-01-26 12:31:00,
2013-01-26 04:36:00,56.3,54.0,29.60,NNW,338,0.0,0.0,92,0.00,,,0.03,WUHU216HW,2013-01-26 12:36:00,
2013-01-26 04:41:00,56.2,53.8,29.60,NNW,338,0.0,0.0,92,0.00,,,0.03,WUHU216HW,2013-01-26 12:41:00,
2013-01-26 04:46:00,56.2,53.8,29.60,WNW,293,0.0,0.0,92,0.00,,,0.03,WUHU216HW,2013-01-26 12:46:00,
2013-01-26 04:51:00,56.2,53.8,29.60,WSW,248,0.0,0.0,92,0.00,,,0.03,WUHU216HW,2013-01-26 12:51:00,
2013-01-26 04:56:00,56.2,53.8,29.60,WSW,248,0.0,0.0,92,0.00,,,0.03,WUHU216HW,2013-01-26 12:56:00,
2013-01-26 05:01:00,56.0,54.0,29.60,West,270,0.2,0.7,93,0.00,,,0.03,WUHU216HW,2013-01-26 13:01:00,
2013-01-26 05:06:00,55.8,53.8,29.60,WSW,248,1.8,1.8,93,0.00,,,0.03,WUHU216HW,2013-01-26 13:06:00,
2013-01-26 05:11:00,55.8,53.8,29.61,West,270,0.0,1.8,93,0.00,,,0.03,WUHU216HW,2013-01-26 13:11:00,
2013-01-26 05:16:00,55.8,53.8,29.60,NW,315,0.4,2.0,93,0.00,,,0.03,WUHU216HW,2013-01-26 13:16:00,
2013-01-26 05:21:00,55.8,53.8,29.60,NW,315,0.7,2.0,93,0.01,,,0.04,WUHU216HW,2013-01-26 13:21:00,
2013-01-26 05:26:00,55.8,53.8,29.60,South,180,0.0,0.9,93,0.01,,,0.04,WUHU216HW,2013-01-26 13:26:00,
2013-01-26 05:31:00,55.8,53.8,29.60,South,180,0.0,0.7,93,0.01,,,0.04,WUHU216HW,2013-01-26 13:31:00,
2013-01-26 05:36:00,55.6,53.7,29.60,West,270,0.0,0.0,93,0.01,,,0.04,WUHU216HW,2013-01-26 13:36:00,
2013-01-26 05:41:00,55.6,53.7,29.60,North,0,0.0,0.0,93,0.01,,,0.04,WUHU216HW,2013-01-26 13:41:00,
2013-01-26 05:46:00,55.6,53.7,29.60,North,0,0.0,0.0,93,0.01,,,0.04,WUHU216HW,2013-01-26 13:46:00,
2013-01-26 05:51:00,55.6,53.7,29.60,North,0,0.0,0.0,93,0.01,,,0.04,WUHU216HW,2013-01-26 13:51:00,
2013-01-26 05:56:00,55.6,53.7,29.60,North,0,0.0,0.0,93,0.01,,,0.04,WUHU216HW,2013-01-26 13:56:00,
2013-01-26 06:01:00,55.6,53.9,29.60,ENE,68,0.7,1.1,94,0.01,,,0.04,WUHU216HW,2013-01-26 14:01:00,
2013-01-26 06:06:00,55.6,53.9,29.60,ENE,68,0.4,1.1,94,0.01,,,0.04,WUHU216HW,2013-01-26 14:06:00,
2013-01-26 06:11:00,55.6,53.9,29.60,East,90,0.0,1.1,94,0.01,,,0.04,WUHU216HW,2013-01-26 14:11:00,
2013-01-26 06:16:00,55.4,53.7,29.60,ENE,68,0.0,0.7,94,0.00,,,0.04,WUHU216HW,2013-01-26 14:16:00,
2013-01-26 06:21:00,55.4,53.7,29.60,ENE,68,0.0,0.7,94,0.00,,,0.04,WUHU216HW,2013-01-26 14:21:00,
2013-01-26 06:26:00,55.4,53.7,29.60,NW,315,0.0,0.0,94,0.00,,,0.04,WUHU216HW,2013-01-26 14:26:00,
2013-01-26 06:31:00,55.4,53.7,29.60,WNW,293,0.0,0.0,94,0.00,,,0.04,WUHU216HW,2013-01-26 14:31:00,
2013-01-26 06:36:00,55.4,53.7,29.60,West,270,0.4,0.4,94,0.00,,,0.04,WUHU216HW,2013-01-26 14:36:00,
2013-01-26 06:41:00,55.4,53.7,29.60,WSW,248,0.0,0.7,94,0.00,,,0.04,WUHU216HW,2013-01-26 14:41:00,
2013-01-26 06:46:00,55.6,53.9,29.61,WSW,248,0.0,0.7,94,0.00,,,0.04,WUHU216HW,2013-01-26 14:46:00,
2013-01-26 06:51:00,55.4,53.7,29.61,WSW,248,0.0,0.0,94,0.00,,,0.04,WUHU216HW,2013-01-26 14:51:00,
2013-01-26 06:56:00,55.4,53.7,29.60,WSW,248,0.0,0.0,94,0.00,,,0.04,WUHU216HW,2013-01-26 14:56:00,
2013-01-26 07:01:00,55.4,53.7,29.60,SE,135,0.0,0.4,94,0.00,,,0.04,WUHU216HW,2013-01-26 15:01:00,
2013-01-26 07:06:00,55.4,53.7,29.60,East,90,0.0,0.7,94,0.00,,,0.04,WUHU216HW,2013-01-26 15:06:00,
2013-01-26 07:11:00,55.4,53.7,29.60,ENE,68,0.0,0.9,94,0.00,,,0.04,WUHU216HW,2013-01-26 15:11:00,
2013-01-26 07:16:00,55.4,53.7,29.60,ENE,68,0.0,0.9,94,0.00,,,0.04,WUHU216HW,2013-01-26 15:16:00,
2013-01-26 07:21:00,55.6,53.9,29.60,ENE,68,0.0,0.0,94,0.00,,,0.04,WUHU216HW,2013-01-26 15:21:00,
2013-01-26 07:26:00,55.6,53.9,29.60,East,90,0.0,0.0,94,0.00,,,0.04,WUHU216HW,2013-01-26 15:26:00,
2013-01-26 07:31:00,55.6,53.9,29.60,East,90,0.0,0.0,94,0.00,,,0.04,WUHU216HW,2013-01-26 15:31:00,
2013-01-26 07:36:00,55.6,53.9,29.60,SE,135,0.0,0.4,94,0.00,,,0.04,WUHU216HW,2013-01-26 15:36:00,
2013-01-26 07:41:00,55.6,53.9,29.60,ESE,113,0.0,0.7,94,0.00,,,0.04,WUHU216HW,2013-01-26 15:41:00,
2013-01-26 07:47:00,55.8,54.1,29.60,WSW,248,0.9,1.8,94,0.00,,,0.04,WUHU216HW,2013-01-26 15:47:00,
2013-01-26 07:52:00,55.8,54.1,29.60,WSW,248,0.0,1.8,94,0.00,,,0.04,WUHU216HW,2013-01-26 15:52:00,
2013-01-26 07:57:00,55.6,53.9,29.60,WSW,248,0.0,1.8,94,0.00,,,0.04,WUHU216HW,2013-01-26 15:57:00,
2013-01-26 08:02:00,55.6,53.9,29.60,SE,135,0.0,0.4,94,0.00,,,0.04,WUHU216HW,2013-01-26 16:02:00,
2013-01-26 08:07:00,55.6,53.9,29.60,SSE,158,0.2,0.9,94,0.00,,,0.04,WUHU216HW,2013-01-26 16:07:00,
2013-01-26 08:12:00,55.4,54.0,29.61,NNE,23,1.8,2.0,95,0.00,,,0.04,WUHU216HW,2013-01-26 16:12:00,
2013-01-26 08:17:00,55.4,54.0,29.61,NE,45,0.4,2.0,95,0.00,,,0.04,WUHU216HW,2013-01-26 16:17:00,
2013-01-26 08:22:00,56.0,54.5,29.61,East,90,0.9,2.5,95,0.00,,,0.04,WUHU216HW,2013-01-26 16:22:00,
2013-01-26 08:27:00,56.2,54.7,29.61,East,90,1.8,2.5,95,0.00,,,0.04,WUHU216HW,2013-01-26 16:27:00,
2013-01-26 08:32:00,56.5,55.1,29.60,SE,135,1.1,2.2,95,0.00,,,0.04,WUHU216HW,2013-01-26 16:32:00,
2013-01-26 08:37:00,57.8,56.3,29.60,ESE,113,1.3,1.8,95,0.00,,,0.04,WUHU216HW,2013-01-26 16:37:00,
2013-01-26 08:42:00,58.0,56.5,29.60,East,90,1.6,1.8,95,0.00,,,0.04,WUHU216HW,2013-01-26 16:42:00,
2013-01-26 08:47:00,58.1,56.7,29.60,ESE,113,1.6,2.2,95,0.00,,,0.04,WUHU216HW,2013-01-26 16:47:00,
2013-01-26 08:52:00,58.5,57.1,29.60,SSW,203,1.3,2.2,95,0.00,,,0.04,WUHU216HW,2013-01-26 16:52:00,
2013-01-26 08:57:00,59.0,57.6,29.60,SW,225,4.5,5.4,95,0.00,,,0.04,WUHU216HW,2013-01-26 16:57:00,
2013-01-26 09:02:00,59.0,57.6,29.60,SW,225,2.5,5.4,95,0.00,,,0.04,WUHU216HW,2013-01-26 17:02:00,
2013-01-26 09:07:00,58.9,57.2,29.60,SW,225,1.8,4.5,94,0.00,,,0.04,WUHU216HW,2013-01-26 17:07:00,
2013-01-26 09:12:00,58.7,57.0,29.60,SSW,203,0.2,3.4,94,0.00,,,0.04,WUHU216HW,2013-01-26 17:12:00,
2013-01-26 09:17:00,59.0,57.3,29.60,SSW,203,2.5,3.1,94,0.00,,,0.04,WUHU216HW,2013-01-26 17:17:00,
2013-01-26 09:22:00,59.4,57.7,29.60,SE,135,1.6,2.5,94,0.00,,,0.04,WUHU216HW,2013-01-26 17:22:00,
2013-01-26 09:27:00,59.6,57.6,29.60,SSE,158,1.1,2.5,93,0.00,,,0.04,WUHU216HW,2013-01-26 17:27:00,
2013-01-26 09:32:00,59.8,58.1,29.60,SW,225,1.6,2.5,94,0.00,,,0.04,WUHU216HW,2013-01-26 17:32:00,
2013-01-26 09:37:00,60.1,58.4,29.60,WSW,248,1.1,3.4,94,0.00,,,0.04,WUHU216HW,2013-01-26 17:37:00,
2013-01-26 09:42:00,60.5,58.8,29.60,WSW,248,0.4,3.8,94,0.00,,,0.04,WUHU216HW,2013-01-26 17:42:00,
2013-01-26 09:47:00,60.7,58.7,29.60,SSW,203,2.2,3.8,93,0.00,,,0.04,WUHU216HW,2013-01-26 17:47:00,
2013-01-26 09:52:00,61.0,59.1,29.61,WNW,293,3.1,3.4,93,0.00,,,0.04,WUHU216HW,2013-01-26 17:52:00,
2013-01-26 09:57:00,60.8,58.5,29.61,SW,225,1.8,3.4,92,0.00,,,0.04,WUHU216HW,2013-01-26 17:57:00,
2013-01-26 10:02:00,61.0,58.7,29.61,NW,315,1.1,3.4,92,0.00,,,0.04,WUHU216HW,2013-01-26 18:02:00,
2013-01-26 10:07:00,61.2,58.6,29.62,West,270,1.6,3.4,91,0.00,,,0.04,WUHU216HW,2013-01-26 18:07:00,
2013-01-26 10:12:00,60.8,58.2,29.62,SW,225,1.1,2.5,91,0.00,,,0.04,WUHU216HW,2013-01-26 18:12:00,
2013-01-26 10:17:00,61.0,58.4,29.63,WNW,293,4.5,4.5,91,0.00,,,0.04,WUHU216HW,2013-01-26 18:17:00,
2013-01-26 10:22:00,61.0,58.1,29.62,SSE,158,3.6,4.5,90,0.00,,,0.04,WUHU216HW,2013-01-26 18:22:00,
2013-01-26 10:27:00,59.6,56.3,29.62,WSW,248,1.1,4.0,89,0.00,,,0.04,WUHU216HW,2013-01-26 18:27:00,
2013-01-26 10:32:00,59.4,56.5,29.63,SW,225,1.6,3.6,90,0.00,,,0.04,WUHU216HW,2013-01-26 18:32:00,
2013-01-26 10:37:00,59.0,56.2,29.63,WSW,248,0.4,3.6,90,0.00,,,0.04,WUHU216HW,2013-01-26 18:37:00,
2013-01-26 10:42:00,58.5,55.6,29.63,WNW,293,2.0,3.6,90,0.00,,,0.04,WUHU216HW,2013-01-26 18:42:00,
2013-01-26 10:47:00,58.0,54.7,29.63,West,270,1.8,3.1,89,0.00,,,0.04,WUHU216HW,2013-01-26 18:47:00,
2013-01-26 10:52:00,58.0,55.1,29.63,West,270,0.9,3.1,90,0.00,,,0.04,WUHU216HW,2013-01-26 18:52:00,
2013-01-26 10:57:00,57.8,55.2,29.63,West,270,1.1,2.9,91,0.00,,,0.04,WUHU216HW,2013-01-26 18:57:00,
2013-01-26 11:02:00,58.0,55.4,29.63,SW,225,0.7,3.8,91,0.00,,,0.04,WUHU216HW,2013-01-26 19:02:00,
2013-01-26 11:07:00,58.3,55.4,29.63,NW,315,1.3,3.8,90,0.00,,,0.04,WUHU216HW,2013-01-26 19:07:00,
2013-01-26 11:12:00,58.5,55.6,29.63,West,270,1.1,3.1,90,0.00,,,0.04,WUHU216HW,2013-01-26 19:12:00,
2013-01-26 11:17:00,58.7,55.8,29.63,NW,315,1.8,2.9,90,0.00,,,0.04,WUHU216HW,2013-01-26 19:17:00,
2013-01-26 11:22:00,59.4,56.8,29.62,West,270,1.3,2.9,91,0.00,,,0.04,WUHU216HW,2013-01-26 19:22:00,
2013-01-26 11:27:00,60.1,57.2,29.62,SW,225,0.9,4.0,90,0.00,,,0.04,WUHU216HW,2013-01-26 19:27:00,
2013-01-26 11:32:00,60.5,57.6,29.62,SSW,203,4.3,4.7,90,0.00,,,0.04,WUHU216HW,2013-01-26 19:32:00,
2013-01-26 11:37:00,61.0,57.5,29.62,WSW,248,1.1,4.7,88,0.00,,,0.04,WUHU216HW,2013-01-26 19:37:00,
2013-01-26 11:42:00,61.4,57.2,29.61,WSW,248,1.8,4.5,86,0.00,,,0.04,WUHU216HW,2013-01-26 19:42:00,
2013-01-26 11:47:00,61.0,56.9,29.61,SW,225,2.7,4.5,86,0.00,,,0.04,WUHU216HW,2013-01-26 19:47:00,
2013-01-26 11:52:00,60.8,57.0,29.61,WNW,293,1.1,2.9,87,0.00,,,0.04,WUHU216HW,2013-01-26 19:52:00,
2013-01-26 11:57:00,60.1,56.0,29.61,SSW,203,1.8,2.9,86,0.00,,,0.04,WUHU216HW,2013-01-26 19:57:00,
2013-01-26 12:02:00,59.9,56.1,29.60,SW,225,4.9,6.5,87,0.00,,,0.04,WUHU216HW,2013-01-26 20:02:00,
2013-01-26 12:07:00,60.1,56.3,29.60,SW,225,2.7,6.5,87,0.00,,,0.04,WUHU216HW,2013-01-26 20:07:00,
2013-01-26 12:12:00,60.3,56.4,29.60,SSW,203,1.6,5.8,87,0.00,,,0.04,WUHU216HW,2013-01-26 20:12:00,
2013-01-26 12:17:00,60.1,56.3,29.60,West,270,2.5,4.7,87,0.00,,,0.04,WUHU216HW,2013-01-26 20:17:00,
2013-01-26 12:22:00,59.6,55.7,29.60,SW,225,1.1,2.5,87,0.00,,,0.04,WUHU216HW,2013-01-26 20:22:00,
2013-01-26 12:27:00,59.4,55.5,29.59,WSW,248,2.5,3.1,87,0.00,,,0.04,WUHU216HW,2013-01-26 20:27:00,
2013-01-26 12:32:00,60.1,56.3,29.59,SW,225,2.0,4.7,87,0.00,,,0.04,WUHU216HW,2013-01-26 20:32:00,
2013-01-26 12:37:00,60.8,57.0,29.59,West,270,1.3,4.7,87,0.00,,,0.04,WUHU216HW,2013-01-26 20:37:00,
2013-01-26 12:42:00,61.4,57.2,29.58,SW,225,4.0,5.8,86,0.00,,,0.04,WUHU216HW,2013-01-26 20:42:00,
2013-01-26 12:47:00,61.9,57.1,29.59,SW,225,2.2,6.0,84,0.00,,,0.04,WUHU216HW,2013-01-26 20:47:00,
2013-01-26 12:52:00,62.3,57.3,29.58,SW,225,3.8,6.0,84,0.00,,,0.04,WUHU216HW,2013-01-26 20:52:00,
2013-01-26 12:57:00,62.6,57.1,29.58,WSW,248,1.8,5.4,82,0.00,,,0.04,WUHU216HW,2013-01-26 20:57:00,
2013-01-26 13:02:00,62.6,57.1,29.58,West,270,0.9,3.8,82,0.00,,,0.04,WUHU216HW,2013-01-26 21:02:00,
2013-01-26 13:07:00,62.5,56.5,29.58,SSW,203,1.6,3.1,81,0.00,,,0.04,WUHU216HW,2013-01-26 21:07:00,
2013-01-26 13:12:00,61.9,56.1,29.58,WNW,293,2.2,3.1,81,0.00,,,0.04,WUHU216HW,2013-01-26 21:12:00,
2013-01-26 13:17:00,61.4,55.9,29.57,SSW,203,1.6,2.7,82,0.00,,,0.04,WUHU216HW,2013-01-26 21:17:00,
2013-01-26 13:22:00,61.4,56.2,29.57,WSW,248,3.8,3.8,83,0.00,,,0.04,WUHU216HW,2013-01-26 21:22:00,
2013-01-26 13:27:00,61.7,56.5,29.57,SW,225,4.0,4.7,83,0.00,,,0.04,WUHU216HW,2013-01-26 21:27:00,
2013-01-26 13:32:00,62.3,57.1,29.57,WSW,248,3.1,5.1,83,0.00,,,0.04,WUHU216HW,2013-01-26 21:32:00,
2013-01-26 13:37:00,61.9,56.1,29.57,SW,225,2.5,5.4,81,0.00,,,0.04,WUHU216HW,2013-01-26 21:37:00,
2013-01-26 13:42:00,61.9,56.3,29.57,West,270,1.3,5.4,82,0.00,,,0.04,WUHU216HW,2013-01-26 21:42:00,
2013-01-26 13:47:00,61.9,56.3,29.57,WSW,248,2.2,6.5,82,0.00,,,0.04,WUHU216HW,2013-01-26 21:47:00,
2013-01-26 13:52:00,61.9,56.1,29.57,WSW,248,2.5,6.5,81,0.00,,,0.04,WUHU216HW,2013-01-26 21:52:00,
2013-01-26 13:57:00,61.4,55.5,29.58,SW,225,1.3,5.1,81,0.00,,,0.04,WUHU216HW,2013-01-26 21:57:00,
2013-01-26 14:02:00,60.8,55.4,29.58,WSW,248,3.1,4.0,82,0.00,,,0.04,WUHU216HW,2013-01-26 22:02:00,
2013-01-26 14:07:00,59.8,54.6,29.57,SW,225,1.6,5.4,83,0.00,,,0.04,WUHU216HW,2013-01-26 22:07:00,
2013-01-26 14:12:00,58.9,54.4,29.58,WSW,248,2.0,5.4,85,0.00,,,0.04,WUHU216HW,2013-01-26 22:12:00,
2013-01-26 14:17:00,58.5,54.4,29.58,SW,225,2.7,4.5,86,0.00,,,0.04,WUHU216HW,2013-01-26 22:17:00,
2013-01-26 14:22:00,58.1,54.3,29.58,West,270,4.0,4.5,87,0.00,,,0.04,WUHU216HW,2013-01-26 22:22:00,
2013-01-26 14:27:00,58.0,54.1,29.58,West,270,1.1,4.0,87,0.00,,,0.04,WUHU216HW,2013-01-26 22:27:00,
2013-01-26 14:32:00,58.1,54.3,29.58,WSW,248,1.1,4.0,87,0.00,,,0.04,WUHU216HW,2013-01-26 22:32:00,
2013-01-26 14:37:00,58.3,54.5,29.58,SSW,203,2.7,4.7,87,0.00,,,0.04,WUHU216HW,2013-01-26 22:37:00,
2013-01-26 14:42:00,58.1,54.3,29.58,WSW,248,0.2,4.7,87,0.00,,,0.04,WUHU216HW,2013-01-26 22:42:00,
2013-01-26 14:47:00,58.0,54.5,29.59,WNW,293,3.4,3.4,88,0.00,,,0.04,WUHU216HW,2013-01-26 22:47:00,
2013-01-26 14:52:00,57.4,53.6,29.59,WSW,248,1.6,3.4,87,0.00,,,0.04,WUHU216HW,2013-01-26 22:52:00,
2013-01-26 14:57:00,56.7,53.5,29.59,SW,225,2.0,6.0,89,0.00,,,0.04,WUHU216HW,2013-01-26 22:57:00,
2013-01-26 15:02:00,56.3,53.1,29.59,West,270,1.1,6.0,89,0.00,,,0.04,WUHU216HW,2013-01-26 23:02:00,
2013-01-26 15:07:00,56.2,53.6,29.59,NNW,338,2.0,3.4,91,0.00,,,0.04,WUHU216HW,2013-01-26 23:07:00,
2013-01-26 15:12:00,56.0,53.4,29.58,West,270,1.3,2.5,91,0.00,,,0.04,WUHU216HW,2013-01-26 23:12:00,
2013-01-26 15:17:00,56.2,53.6,29.59,SW,225,2.0,2.7,91,0.00,,,0.04,WUHU216HW,2013-01-26 23:17:00,
2013-01-26 15:22:00,56.5,54.2,29.59,WNW,293,1.3,3.1,92,0.00,,,0.04,WUHU216HW,2013-01-26 23:22:00,
2013-01-26 15:27:00,56.5,53.9,29.58,West,270,1.8,3.1,91,0.00,,,0.04,WUHU216HW,2013-01-26 23:27:00,
2013-01-26 15:32:00,56.5,53.9,29.58,West,270,2.5,3.1,91,0.00,,,0.04,WUHU216HW,2013-01-26 23:32:00,
2013-01-26 15:37:00,56.5,53.9,29.58,ENE,68,0.9,2.5,91,0.00,,,0.04,WUHU216HW,2013-01-26 23:37:00,
2013-01-26 15:42:00,56.9,54.3,29.57,WNW,293,1.1,2.2,91,0.00,,,0.04,WUHU216HW,2013-01-26 23:42:00,
2013-01-26 15:47:00,57.1,54.2,29.57,West,270,0.4,4.0,90,0.00,,,0.04,WUHU216HW,2013-01-26 23:47:00,
2013-01-26 15:52:00,57.4,54.5,29.57,North,0,1.1,4.0,90,0.00,,,0.04,WUHU216HW,2013-01-26 23:52:00,
2013-01-26 15:57:00,58.1,54.9,29.57,SW,225,1.3,2.5,89,0.00,,,0.04,WUHU216HW,2013-01-26 23:57:00,
2013-01-26 16:02:00,58.3,55.1,29.57,WSW,248,2.5,2.9,89,0.00,,,0.04,WUHU216HW,2013-01-27 00:02:00,
2013-01-26 16:07:00,58.5,55.3,29.57,SW,225,1.8,4.7,89,0.00,,,0.04,WUHU216HW,2013-01-27 00:07:00,
2013-01-26 16:12:00,58.5,55.0,29.57,WSW,248,2.5,4.7,88,0.00,,,0.04,WUHU216HW,2013-01-27 00:12:00,
2013-01-26 16:17:00,58.3,54.8,29.57,WSW,248,1.8,3.6,88,0.00,,,0.04,WUHU216HW,2013-01-27 00:17:00,
2013-01-26 16:22:00,58.0,54.5,29.58,WSW,248,1.6,3.4,88,0.00,,,0.04,WUHU216HW,2013-01-27 00:22:00,
2013-01-26 16:27:00,57.4,53.6,29.57,SW,225,3.6,5.4,87,0.00,,,0.04,WUHU216HW,2013-01-27 00:27:00,
2013-01-26 16:32:00,57.1,53.2,29.57,SW,225,1.3,5.4,87,0.00,,,0.04,WUHU216HW,2013-01-27 00:32:00,
2013-01-26 16:37:00,56.7,53.2,29.58,SW,225,2.5,3.6,88,0.00,,,0.04,WUHU216HW,2013-01-27 00:37:00,
2013-01-26 16:42:00,56.7,53.2,29.58,South,180,2.5,3.6,88,0.00,,,0.04,WUHU216HW,2013-01-27 00:42:00,
2013-01-26 16:47:00,56.7,53.2,29.58,SW,225,2.0,4.0,88,0.00,,,0.04,WUHU216HW,2013-01-27 00:47:00,
2013-01-26 16:52:00,56.3,53.1,29.58,WSW,248,0.0,4.0,89,0.00,,,0.04,WUHU216HW,2013-01-27 00:52:00,
2013-01-26 16:57:00,56.2,52.9,29.58,SW,225,0.9,3.4,89,0.00,,,0.04,WUHU216HW,2013-01-27 00:57:00,
2013-01-26 17:02:00,55.8,52.6,29.58,WSW,248,0.0,2.9,89,0.00,,,0.04,WUHU216HW,2013-01-27 01:02:00,
2013-01-26 17:07:00,55.8,52.6,29.58,NNW,338,0.0,2.9,89,0.00,,,0.04,WUHU216HW,2013-01-27 01:07:00,
2013-01-26 17:11:00,55.4,52.6,29.58,ESE,113,0.4,1.1,90,0.00,,,0.04,WUHU216HW,2013-01-27 01:11:00,
2013-01-26 17:16:00,55.4,52.6,29.59,SW,225,0.0,1.1,90,0.00,,,0.04,WUHU216HW,2013-01-27 01:16:00,
2013-01-26 17:21:00,55.4,52.8,29.59,ENE,68,0.9,1.1,91,0.00,,,0.04,WUHU216HW,2013-01-27 01:21:00,
2013-01-26 17:26:00,55.3,52.9,29.59,ENE,68,1.8,2.5,92,0.00,,,0.04,WUHU216HW,2013-01-27 01:26:00,
2013-01-26 17:31:00,55.3,52.9,29.59,ENE,68,1.8,2.5,92,0.00,,,0.04,WUHU216HW,2013-01-27 01:31:00,
2013-01-26 17:37:00,55.1,53.1,29.59,ESE,113,1.6,2.5,93,0.00,,,0.04,WUHU216HW,2013-01-27 01:37:00,
2013-01-26 17:41:00,55.3,53.6,29.59,NE,45,2.7,3.4,94,0.00,,,0.04,WUHU216HW,2013-01-27 01:41:00,
2013-01-26 17:47:00,55.3,53.6,29.59,East,90,2.0,3.4,94,0.00,,,0.04,WUHU216HW,2013-01-27 01:47:00,
2013-01-26 17:51:00,55.3,53.6,29.59,NE,45,2.2,4.0,94,0.00,,,0.04,WUHU216HW,2013-01-27 01:51:00,
2013-01-26 17:57:00,55.3,53.6,29.59,ENE,68,3.8,4.0,94,0.00,,,0.04,WUHU216HW,2013-01-27 01:57:00,
2013-01-26 18:01:00,55.1,53.4,29.59,East,90,4.7,4.7,94,0.00,,,0.04,WUHU216HW,2013-01-27 02:01:00,
2013-01-26 18:07:00,55.1,53.4,29.59,ESE,113,3.4,4.7,94,0.00,,,0.04,WUHU216HW,2013-01-27 02:07:00,
2013-01-26 18:12:00,55.1,53.4,29.59,ESE,113,2.2,4.7,94,0.00,,,0.04,WUHU216HW,2013-01-27 02:12:00,
2013-01-26 18:17:00,55.3,53.6,29.60,ESE,113,3.4,4.0,94,0.00,,,0.04,WUHU216HW,2013-01-27 02:17:00,
2013-01-26 18:22:00,55.3,53.6,29.60,ESE,113,4.0,4.0,94,0.00,,,0.04,WUHU216HW,2013-01-27 02:22:00,
2013-01-26 18:27:00,55.3,53.6,29.60,ENE,68,2.9,4.0,94,0.00,,,0.04,WUHU216HW,2013-01-27 02:27:00,
2013-01-26 18:32:00,55.4,53.7,29.60,ESE,113,3.4,3.8,94,0.00,,,0.04,WUHU216HW,2013-01-27 02:32:00,
2013-01-26 18:37:00,55.4,53.7,29.60,ESE,113,3.4,5.4,94,0.00,,,0.04,WUHU216HW,2013-01-27 02:37:00,
2013-01-26 18:42:00,55.6,53.9,29.60,East,90,3.4,5.4,94,0.00,,,0.04,WUHU216HW,2013-01-27 02:42:00,
2013-01-26 18:46:00,55.6,53.9,29.60,East,90,1.8,4.5,94,0.00,,,0.04,WUHU216HW,2013-01-27 02:46:00,
2013-01-26 18:52:00,55.6,53.9,29.61,ESE,113,3.1,4.5,94,0.00,,,0.04,WUHU216HW,2013-01-27 02:52:00,
2013-01-26 18:57:00,55.8,54.1,29.61,East,90,3.1,4.0,94,0.00,,,0.04,WUHU216HW,2013-01-27 02:57:00,
2013-01-26 19:01:00,55.8,53.8,29.61,ENE,68,5.4,5.4,93,0.00,,,0.04,WUHU216HW,2013-01-27 03:01:00,
2013-01-26 19:06:00,55.8,53.8,29.61,East,90,2.9,5.4,93,0.00,,,0.04,WUHU216HW,2013-01-27 03:06:00,
2013-01-26 19:11:00,55.8,53.8,29.61,East,90,3.1,5.4,93,0.00,,,0.04,WUHU216HW,2013-01-27 03:11:00,
2013-01-26 19:16:00,55.8,53.8,29.60,East,90,4.3,6.9,93,0.00,,,0.04,WUHU216HW,2013-01-27 03:16:00,
2013-01-26 19:21:00,55.8,53.8,29.60,ESE,113,1.8,6.9,93,0.00,,,0.04,WUHU216HW,2013-01-27 03:21:00,
2013-01-26 19:26:00,56.0,54.0,29.61,ENE,68,2.5,4.3,93,0.00,,,0.04,WUHU216HW,2013-01-27 03:26:00,
2013-01-26 19:31:00,56.0,54.0,29.61,ENE,68,2.7,5.1,93,0.00,,,0.04,WUHU216HW,2013-01-27 03:31:00,
2013-01-26 19:36:00,56.2,54.2,29.61,ENE,68,5.8,5.8,93,0.00,,,0.04,WUHU216HW,2013-01-27 03:36:00,
2013-01-26 19:41:00,56.2,54.2,29.61,ENE,68,3.4,5.8,93,0.00,,,0.04,WUHU216HW,2013-01-27 03:41:00,
2013-01-26 19:46:00,56.3,54.4,29.61,NE,45,2.9,6.3,93,0.00,,,0.04,WUHU216HW,2013-01-27 03:46:00,
2013-01-26 19:51:00,56.3,54.0,29.61,SE,135,1.1,6.5,92,0.00,,,0.04,WUHU216HW,2013-01-27 03:51:00,
2013-01-26 19:56:00,56.3,54.0,29.62,ENE,68,4.0,6.5,92,0.00,,,0.04,WUHU216HW,2013-01-27 03:56:00,
2013-01-26 20:01:00,56.3,54.0,29.62,SE,135,6.3,6.3,92,0.00,,,0.04,WUHU216HW,2013-01-27 04:01:00,
2013-01-26 20:06:00,56.3,54.0,29.62,ENE,68,4.5,6.3,92,0.00,,,0.04,WUHU216HW,2013-01-27 04:06:00,
2013-01-26 20:11:00,56.3,54.0,29.62,East,90,3.6,5.6,92,0.00,,,0.04,WUHU216HW,2013-01-27 04:11:00,
2013-01-26 20:16:00,56.3,54.0,29.62,NE,45,1.8,5.4,92,0.00,,,0.04,WUHU216HW,2013-01-27 04:16:00,
2013-01-26 20:21:00,56.3,54.0,29.62,East,90,2.9,5.8,92,0.00,,,0.04,WUHU216HW,2013-01-27 04:21:00,
2013-01-26 20:26:00,56.3,54.0,29.62,ESE,113,4.7,6.3,92,0.00,,,0.04,WUHU216HW,2013-01-27 04:26:00,
2013-01-26 20:31:00,56.3,54.0,29.62,East,90,2.2,6.3,92,0.00,,,0.04,WUHU216HW,2013-01-27 04:31:00,
2013-01-26 20:36:00,56.3,54.0,29.63,East,90,1.8,6.3,92,0.00,,,0.04,WUHU216HW,2013-01-27 04:36:00,
2013-01-26 20:41:00,56.3,54.0,29.63,ESE,113,6.3,6.3,92,0.00,,,0.04,WUHU216HW,2013-01-27 04:41:00,
2013-01-26 20:46:00,56.3,54.0,29.63,ESE,113,2.5,6.3,92,0.00,,,0.04,WUHU216HW,2013-01-27 04:46:00,
2013-01-26 20:51:00,56.3,54.0,29.63,NE,45,3.8,6.3,92,0.00,,,0.04,WUHU216HW,2013-01-27 04:51:00,
2013-01-26 20:56:00,56.3,54.0,29.63,ESE,113,3.6,4.7,92,0.00,,,0.04,WUHU216HW,2013-01-27 04:56:00,
2013-01-26 21:00:00,56.3,54.0,29.63,NE,45,3.4,5.1,92,0.00,,,0.04,WUHU216HW,2013-01-27 05:00:00,
2013-01-26 21:01:00,56.3,54.0,29.63,ESE,113,3.1,5.1,92,0.00,,,0.04,WUHU216HW,2013-01-27 05:01:00,
2013-01-26 21:06:00,56.3,54.0,29.64,East,90,1.3,6.7,92,0.00,,,0.04,WUHU216HW,2013-01-27 05:06:00,
2013-01-26 21:11:00,56.3,54.0,29.64,ENE,68,5.8,6.7,92,0.00,,,0.04,WUHU216HW,2013-01-27 05:11:00,
2013-01-26 21:17:00,56.3,54.0,29.64,ENE,68,2.5,5.8,92,0.00,,,0.04,WUHU216HW,2013-01-27 05:17:00,
2013-01-26 21:22:00,56.3,53.7,29.64,ENE,68,4.0,5.8,91,0.00,,,0.04,WUHU216HW,2013-01-27 05:22:00,
2013-01-26 21:27:00,56.5,53.9,29.64,ENE,68,3.4,4.9,91,0.00,,,0.04,WUHU216HW,2013-01-27 05:27:00,
2013-01-26 21:32:00,56.5,53.9,29.64,NE,45,3.1,4.7,91,0.00,,,0.04,WUHU216HW,2013-01-27 05:32:00,
2013-01-26 21:37:00,56.5,53.9,29.65,ENE,68,2.9,4.7,91,0.00,,,0.04,WUHU216HW,2013-01-27 05:37:00,
2013-01-26 21:41:00,56.5,53.9,29.64,ESE,113,2.0,4.5,91,0.00,,,0.04,WUHU216HW,2013-01-27 05:41:00,
2013-01-26 21:47:00,56.5,53.9,29.64,ENE,68,5.6,5.8,91,0.00,,,0.04,WUHU216HW,2013-01-27 05:47:00,
2013-01-26 21:52:00,56.3,53.5,29.65,East,90,3.1,7.2,90,0.00,,,0.04,WUHU216HW,2013-01-27 05:52:00,
2013-01-26 21:56:00,56.2,53.3,29.65,ENE,68,2.5,7.2,90,0.00,,,0.04,WUHU216HW,2013-01-27 05:56:00,
2013-01-26 22:01:00,56.2,53.3,29.65,ENE,68,3.4,5.1,90,0.00,,,0.04,WUHU216HW,2013-01-27 06:01:00,
2013-01-26 22:06:00,56.2,53.3,29.65,East,90,3.8,5.4,90,0.00,,,0.04,WUHU216HW,2013-01-27 06:06:00,
2013-01-26 22:11:00,56.2,53.3,29.65,ENE,68,4.3,5.4,90,0.00,,,0.04,WUHU216HW,2013-01-27 06:11:00,
2013-01-26 22:16:00,56.2,53.3,29.65,East,90,5.1,5.8,90,0.00,,,0.04,WUHU216HW,2013-01-27 06:16:00,
2013-01-26 22:21:00,56.0,53.1,29.65,NE,45,3.1,5.8,90,0.00,,,0.04,WUHU216HW,2013-01-27 06:21:00,
2013-01-26 22:26:00,56.0,53.1,29.65,ESE,113,4.0,5.6,90,0.00,,,0.04,WUHU216HW,2013-01-27 06:26:00,
2013-01-26 22:32:00,56.0,52.7,29.65,ESE,113,4.5,6.0,89,0.00,,,0.04,WUHU216HW,2013-01-27 06:32:00,
2013-01-26 22:37:00,56.0,52.7,29.65,ENE,68,5.6,6.0,89,0.00,,,0.04,WUHU216HW,2013-01-27 06:37:00,
2013-01-26 22:41:00,55.8,52.6,29.65,East,90,5.6,6.0,89,0.00,,,0.04,WUHU216HW,2013-01-27 06:41:00,
2013-01-26 22:47:00,55.8,52.6,29.65,ESE,113,4.3,6.3,89,0.00,,,0.04,WUHU216HW,2013-01-27 06:47:00,
2013-01-26 22:52:00,55.8,52.6,29.66,East,90,2.5,6.3,89,0.00,,,0.04,WUHU216HW,2013-01-27 06:52:00,
2013-01-26 22:57:00,55.6,52.4,29.66,ESE,113,6.3,6.3,89,0.00,,,0.04,WUHU216HW,2013-01-27 06:57:00,
2013-01-26 23:02:00,55.6,52.4,29.66,ENE,68,1.8,6.3,89,0.00,,,0.04,WUHU216HW,2013-01-27 07:02:00,
2013-01-26 23:07:00,55.6,52.4,29.66,ESE,113,4.3,6.3,89,0.00,,,0.04,WUHU216HW,2013-01-27 07:07:00,
2013-01-26 23:13:00,55.6,52.4,29.66,ESE,113,4.0,7.6,89,0.00,,,0.04,WUHU216HW,2013-01-27 07:13:00,
2013-01-26 23:18:00,55.4,52.2,29.67,East,90,2.5,6.5,89,0.00,,,0.04,WUHU216HW,2013-01-27 07:18:00,
2013-01-26 23:23:00,55.3,52.0,29.67,ENE,68,5.6,5.8,89,0.00,,,0.04,WUHU216HW,2013-01-27 07:23:00,
2013-01-26 23:28:00,55.1,51.8,29.66,ESE,113,4.0,6.3,89,0.00,,,0.04,WUHU216HW,2013-01-27 07:28:00,
2013-01-26 23:33:00,55.1,51.8,29.66,ESE,113,4.7,6.3,89,0.00,,,0.04,WUHU216HW,2013-01-27 07:33:00,
2013-01-26 23:38:00,55.1,51.8,29.66,East,90,5.8,5.8,89,0.00,,,0.04,WUHU216HW,2013-01-27 07:38:00,
2013-01-26 23:43:00,54.9,51.7,29.66,ESE,113,5.1,7.6,89,0.00,,,0.04,WUHU216HW,2013-01-27 07:43:00,
2013-01-26 23:48:00,55.1,51.8,29.66,ENE,68,3.1,7.6,89,0.00,,,0.04,WUHU216HW,2013-01-27 07:48:00,
2013-01-26 23:53:00,54.9,52.0,29.66,ENE,68,5.1,6.5,90,0.00,,,0.04,WUHU216HW,2013-01-27 07:53:00,
2013-01-26 23:58:00,54.9,52.0,29.65,NNE,23,3.1,5.6,90,0.00,,,0.04,WUHU216HW,2013-01-27 07:58:00,